Time;durP1;ratioP1;P1;durP2;ratioP2;P2;SDS_P1;SDS_P2;PMS_P1;PMS_P2;Temp;Humidity;BMP_temperature;BMP_pressure;BME280_temperature;BME280_humidity;BME280_pressure;Samples;Min_cycle;Max_cycle;Signal;HPM_P1;HPM_P2
2022/09/18 00:00:47;;;;;;;1999.90;999.90;;;;;;;7.99;100.00;93961.63;6270917;22;20255;-62
2022/09/18 00:03:13;;;;;;;1999.90;999.90;;;;;;;7.95;100.00;93950.06;6245556;23;20162;-62
2022/09/18 00:05:39;;;;;;;1999.90;999.90;;;;;;;7.78;100.00;93967.50;6270385;22;20190;-62
2022/09/18 00:08:04;;;;;;;1999.90;999.90;;;;;;;7.78;100.00;93967.50;6270276;22;20206;-62
2022/09/18 00:10:30;;;;;;;1999.90;999.90;;;;;;;7.78;100.00;93966.72;6244584;23;20233;-61
2022/09/18 00:12:55;;;;;;;1999.90;999.90;;;;;;;7.96;100.00;93956.25;6270510;22;20186;-61
2022/09/18 00:15:21;;;;;;;1999.90;999.90;;;;;;;7.82;100.00;93965.47;6270820;22;20212;-61
2022/09/18 00:17:46;;;;;;;1999.90;999.90;;;;;;;7.82;100.00;93962.75;6270826;22;20175;-62
2022/09/18 00:20:12;;;;;;;1999.90;999.90;;;;;;;7.83;100.00;93967.00;6245378;23;20230;-61
2022/09/18 00:22:39;;;;;;;1999.90;999.90;;;;;;;7.84;100.00;93971.28;6244603;23;20202;-62
2022/09/18 00:25:06;;;;;;;1999.90;999.90;;;;;;;7.83;100.00;93975.16;6270479;22;20171;-62
2022/09/18 00:27:31;;;;;;;1999.90;999.90;;;;;;;7.77;100.00;93984.22;6244496;22;20218;-62
2022/09/18 00:29:57;;;;;;;1999.90;999.90;;;;;;;7.77;100.00;93982.28;6244877;23;20161;-61
2022/09/18 00:32:22;;;;;;;1999.90;999.90;;;;;;;7.76;100.00;93991.59;6270049;22;20174;-62
2022/09/18 00:34:47;;;;;;;1999.90;999.90;;;;;;;7.85;100.00;93983.66;6270191;22;20584;-62
2022/09/18 00:37:13;;;;;;;1999.90;999.90;;;;;;;7.67;100.00;93990.63;6270772;22;20163;-62
2022/09/18 00:39:39;;;;;;;1999.90;999.90;;;;;;;7.81;100.00;93991.13;6270859;22;20246;-62
2022/09/18 00:42:04;;;;;;;1999.90;999.90;;;;;;;7.88;100.00;93987.50;6270859;22;20172;-63
2022/09/18 00:44:42;;;;;;;1999.90;999.90;;;;;;;7.86;100.00;93993.34;6244249;22;20166;-62
2022/09/18 00:47:10;;;;;;;1999.90;999.90;;;;;;;7.71;100.00;94000.25;6245312;23;20187;-62
2022/09/18 00:49:39;;;;;;;1999.90;999.90;;;;;;;7.82;100.00;94002.75;6270710;22;20177;-62
2022/09/18 00:52:05;;;;;;;1999.90;999.90;;;;;;;7.86;100.00;93995.31;6270161;22;20161;-64
2022/09/18 00:54:36;;;;;;;1999.90;999.90;;;;;;;7.84;100.00;94009.31;6244596;23;20167;-62
2022/09/18 00:57:07;;;;;;;1999.90;999.90;;;;;;;7.68;100.00;94001.09;6271088;22;20168;-62
2022/09/18 00:59:35;;;;;;;1999.90;999.90;;;;;;;7.74;100.00;94004.06;6271914;22;20172;-63
2022/09/18 01:02:01;;;;;;;1999.90;999.90;;;;;;;7.69;100.00;94010.00;6246080;22;20249;-62
2022/09/18 01:04:27;;;;;;;1999.90;999.90;;;;;;;7.65;100.00;94003.88;6245702;22;20190;-63
2022/09/18 01:07:08;;;;;;;1999.90;999.90;;;;;;;7.77;100.00;94009.47;6245580;22;20232;-62
2022/09/18 01:09:53;;;;;;;1999.90;999.90;;;;;;;7.83;100.00;94007.75;6246394;23;20257;-62
2022/09/18 01:12:53;;;;;;;1999.90;999.90;;;;;;;7.70;100.00;94004.16;6245926;23;20241;-63
2022/09/18 01:15:37;;;;;;;1999.90;999.90;;;;;;;7.74;100.00;94004.06;6207391;22;20178;-62
2022/09/18 01:18:27;;;;;;;1999.90;999.90;;;;;;;7.82;100.00;94011.66;6272273;22;20168;-61
2022/09/18 01:20:52;;;;;;;1999.90;999.90;;;;;;;7.83;100.00;94017.88;6272206;22;20167;-61
2022/09/18 01:23:30;;;;;;;1999.90;999.90;;;;;;;7.80;100.00;94024.94;6271288;22;20272;-62
2022/09/18 01:26:13;;;;;;;1999.90;999.90;;;;;;;7.80;100.00;94035.03;6271808;22;20283;-60
2022/09/18 01:28:57;;;;;;;1999.90;999.90;;;;;;;7.89;100.00;94021.63;6271884;22;20214;-62
2022/09/18 01:31:37;;;;;;;1999.90;999.90;;;;;;;7.82;100.00;94033.41;6272048;22;20179;-61
2022/09/18 01:34:10;;;;;;;1999.90;999.90;;;;;;;7.88;100.00;94030.97;6245701;23;20170;-60
2022/09/18 01:36:39;;;;;;;1999.90;999.90;;;;;;;7.91;100.00;94025.47;6246154;23;20180;-62
2022/09/18 01:39:27;;;;;;;1999.90;999.90;;;;;;;8.07;100.00;94022.81;6246180;22;20514;-61
2022/09/18 01:41:55;;;;;;;1999.90;999.90;;;;;;;7.91;100.00;94028.19;6246642;23;20173;-61
2022/09/18 01:44:27;;;;;;;1999.90;999.90;;;;;;;8.02;100.00;94031.47;6271389;22;20225;-63
2022/09/18 01:46:55;;;;;;;1999.90;999.90;;;;;;;7.97;100.00;94042.81;6246043;23;20229;-62
2022/09/18 01:49:30;;;;;;;1999.90;999.90;;;;;;;7.91;100.00;94036.34;6271968;22;20167;-61
2022/09/18 01:52:01;;;;;;;1999.90;999.90;;;;;;;7.92;100.00;94029.72;6246518;23;20173;-61
2022/09/18 01:54:32;;;;;;;1999.90;999.90;;;;;;;7.97;100.00;94029.22;6271828;22;20670;-62
2022/09/18 01:57:12;;;;;;;1999.90;999.90;;;;;;;7.99;100.00;94026.09;6271778;22;20495;-61
2022/09/18 01:59:43;;;;;;;1999.90;999.90;;;;;;;8.07;100.00;94033.69;6246058;23;20538;-61
2022/09/18 02:02:17;;;;;;;1999.90;999.90;;;;;;;8.07;100.00;94020.09;6245880;23;20170;-60
2022/09/18 02:04:46;;;;;;;1999.90;999.90;;;;;;;8.13;100.00;94014.91;6246237;23;20158;-61
2022/09/18 02:07:19;;;;;;;1999.90;999.90;;;;;;;8.15;100.00;94018.75;6244788;23;20188;-61
2022/09/18 02:09:45;;;;;;;1999.90;999.90;;;;;;;8.20;100.00;94020.22;6246098;23;20248;-60
2022/09/18 02:12:17;;;;;;;1999.90;999.90;;;;;;;8.22;100.00;94023.28;6246417;23;20196;-61
2022/09/18 02:14:46;;;;;;;1999.90;999.90;;;;;;;8.20;100.00;94010.06;6246483;23;20175;-60
2022/09/18 02:17:18;;;;;;;1999.90;999.90;;;;;;;8.24;100.00;94005.38;6271024;22;20167;-60
2022/09/18 02:19:50;;;;;;;1999.90;999.90;;;;;;;8.26;100.00;94011.16;6271609;22;20230;-60
2022/09/18 02:22:20;;;;;;;1999.90;999.90;;;;;;;8.22;100.00;94002.31;6246152;23;20181;-60
2022/09/18 02:24:48;;;;;;;1999.90;999.90;;;;;;;8.44;100.00;93997.16;6246205;23;20184;-61
2022/09/18 02:27:16;;;;;;;1999.90;999.90;;;;;;;8.48;100.00;93995.09;6271508;22;20187;-61
2022/09/18 02:29:44;;;;;;;1999.90;999.90;;;;;;;8.45;100.00;93994.00;6245317;22;20171;-60
2022/09/18 02:32:10;;;;;;;1999.90;999.90;;;;;;;8.48;100.00;93998.59;6271465;22;20198;-60
2022/09/18 02:34:35;;;;;;;1999.90;999.90;;;;;;;8.46;100.00;94006.44;6245814;23;20252;-61
2022/09/18 02:37:09;;;;;;;1999.90;999.90;;;;;;;8.48;100.00;94012.22;6271103;22;20234;-60
2022/09/18 02:39:51;;;;;;;1999.90;999.90;;;;;;;8.47;100.00;94016.13;6271446;22;20696;-61
2022/09/18 02:42:34;;;;;;;1999.90;999.90;;;;;;;8.50;100.00;94012.56;6271614;22;20171;-61
2022/09/18 02:45:09;;;;;;;1999.90;999.90;;;;;;;8.50;100.00;94018.00;6246025;23;20179;-60
2022/09/18 02:47:58;;;;;;;1999.90;999.90;;;;;;;8.49;100.00;94027.31;6271448;22;20202;-61
2022/09/18 02:50:48;;;;;;;1999.90;999.90;;;;;;;8.51;100.00;94022.25;6245861;23;20196;-62
2022/09/18 02:53:28;;;;;;;1999.90;999.90;;;;;;;8.49;100.00;94030.06;6271395;22;20183;-62
2022/09/18 02:56:04;;;;;;;1999.90;999.90;;;;;;;8.51;100.00;94033.13;6271336;22;20228;-61
2022/09/18 02:58:48;;;;;;;1999.90;999.90;;;;;;;8.56;100.00;94026.44;6245316;22;20206;-61
2022/09/18 03:01:15;;;;;;;1999.90;999.90;;;;;;;8.39;100.00;94036.50;6246272;23;20565;-61
2022/09/18 03:03:40;;;;;;;1999.90;999.90;;;;;;;8.37;100.00;94040.81;6245822;23;20176;-61
2022/09/18 03:06:07;;;;;;;1999.90;999.90;;;;;;;8.44;100.00;94032.50;6271608;22;20167;-60
2022/09/18 03:08:32;;;;;;;1999.90;999.90;;;;;;;8.48;100.00;94031.25;6245677;23;20164;-61
2022/09/18 03:10:58;;;;;;;1999.90;999.90;;;;;;;8.51;100.00;94030.41;6245941;23;20160;-61
2022/09/18 03:13:23;;;;;;;1999.90;999.90;;;;;;;8.54;100.00;94035.00;6271135;22;20165;-60
2022/09/18 03:15:49;;;;;;;1999.90;999.90;;;;;;;8.50;100.00;94037.03;6270728;22;20163;-61
2022/09/18 03:18:14;;;;;;;1999.90;999.90;;;;;;;8.45;100.00;94031.34;6270814;22;20177;-62
2022/09/18 03:20:42;;;;;;;1999.90;999.90;;;;;;;8.50;100.00;94042.47;6270980;22;20218;-62
2022/09/18 03:23:09;;;;;;;1999.90;999.90;;;;;;;8.65;100.00;94038.25;6271042;22;20222;-62
2022/09/18 03:25:34;;;;;;;1999.90;999.90;;;;;;;8.54;100.00;94045.88;6245310;23;20152;-61
2022/09/18 03:28:00;;;;;;;1999.90;999.90;;;;;;;8.67;100.00;94043.28;6245347;23;20227;-60
2022/09/18 03:30:25;;;;;;;1999.90;999.90;;;;;;;8.57;100.00;94055.94;6245777;23;20203;-61
2022/09/18 03:32:52;;;;;;;1999.90;999.90;;;;;;;8.74;100.00;94052.03;6270900;22;20158;-61
2022/09/18 03:35:17;;;;;;;1999.90;999.90;;;;;;;8.77;100.00;94048.47;6270871;22;20167;-61
2022/09/18 03:37:42;;;;;;;1999.90;999.90;;;;;;;8.78;100.00;94049.97;6271505;22;20488;-61
2022/09/18 03:40:08;;;;;;;1999.90;999.90;;;;;;;8.80;100.00;94052.28;6271255;22;20167;-61
2022/09/18 03:42:33;;;;;;;1999.90;999.90;;;;;;;8.81;100.00;94054.59;6245184;23;20164;-61
2022/09/18 03:44:59;;;;;;;1999.90;999.90;;;;;;;8.82;100.00;94067.00;6270669;22;20161;-60
2022/09/18 03:47:24;;;;;;;1999.90;999.90;;;;;;;8.82;100.00;94083.31;6270969;22;20267;-61
2022/09/18 03:49:50;;;;;;;1999.90;999.90;;;;;;;8.79;100.00;94078.75;6270809;22;20181;-61
2022/09/18 03:52:15;;;;;;;1999.90;999.90;;;;;;;8.85;100.00;94071.59;6270681;22;20258;-61
2022/09/18 03:54:41;;;;;;;1999.90;999.90;;;;;;;8.85;100.00;94077.03;6244968;22;20185;-62
2022/09/18 03:57:06;;;;;;;1999.90;999.90;;;;;;;8.84;100.00;94075.50;6270358;22;20165;-60
2022/09/18 03:59:31;;;;;;;1999.90;999.90;;;;;;;8.80;100.00;94084.94;6270560;22;20174;-62
2022/09/18 04:01:57;;;;;;;1999.90;999.90;;;;;;;8.79;100.00;94084.19;6269922;22;20170;-60
2022/09/18 04:04:22;;;;;;;1999.90;999.90;;;;;;;8.78;100.00;94081.91;6270194;22;20232;-62
2022/09/18 04:06:48;;;;;;;1999.90;999.90;;;;;;;8.79;100.00;94086.91;6244790;23;20254;-61
2022/09/18 04:09:13;;;;;;;1999.90;999.90;;;;;;;8.80;100.00;94091.16;6269985;22;20167;-62
2022/09/18 04:11:38;;;;;;;1999.90;999.90;;;;;;;8.84;100.00;94080.19;6270283;22;20171;-60
2022/09/18 04:14:04;;;;;;;1999.90;999.90;;;;;;;8.86;100.00;94089.44;6270185;22;20191;-62
2022/09/18 04:16:29;;;;;;;1999.90;999.90;;;;;;;8.83;100.00;94090.31;6270315;22;20167;-60
2022/09/18 04:18:54;;;;;;;1999.90;999.90;;;;;;;8.86;100.00;94091.44;6270357;22;20175;-59
2022/09/18 04:21:20;;;;;;;1999.90;999.90;;;;;;;8.86;100.00;94100.34;6270295;22;20164;-59
2022/09/18 04:23:46;;;;;;;1999.90;999.90;;;;;;;8.91;100.00;94110.75;6244458;22;20244;-59
2022/09/18 04:26:11;;;;;;;1999.90;999.90;;;;;;;8.91;100.00;94113.47;6270183;22;20478;-59
2022/09/18 04:28:37;;;;;;;1999.90;999.90;;;;;;;8.99;100.00;94109.38;6270256;22;20159;-58
2022/09/18 04:31:02;;;;;;;1999.90;999.90;;;;;;;8.97;100.00;94111.00;6271230;22;20221;-59
2022/09/18 04:33:28;;;;;;;1999.90;999.90;;;;;;;8.96;100.00;94120.38;6271830;22;20188;-60
2022/09/18 04:35:55;;;;;;;1999.90;999.90;;;;;;;8.96;100.00;94121.13;6272406;22;20168;-60
2022/09/18 04:38:26;;;;;;;1999.90;999.90;;;;;;;8.99;100.00;94125.72;6271475;22;20227;-60
2022/09/18 04:40:59;;;;;;;1999.90;999.90;;;;;;;8.94;100.00;94126.22;6246800;23;20162;-61
2022/09/18 04:43:26;;;;;;;1999.90;999.90;;;;;;;9.00;100.00;94127.25;6246274;23;20163;-61
2022/09/18 04:45:52;;;;;;;1999.90;999.90;;;;;;;9.03;100.00;94129.13;6271261;22;20156;-61
2022/09/18 04:48:18;;;;;;;1999.90;999.90;;;;;;;9.03;100.00;94134.56;6246317;23;20189;-59
2022/09/18 04:50:45;;;;;;;1999.90;999.90;;;;;;;9.05;100.00;94140.38;6246052;23;20191;-59
2022/09/18 04:53:10;;;;;;;1999.90;999.90;;;;;;;9.02;100.00;94141.22;6246050;23;20248;-61
2022/09/18 04:55:36;;;;;;;1999.90;999.90;;;;;;;9.04;100.00;94144.25;6246233;22;20603;-60
2022/09/18 04:58:01;;;;;;;1999.90;999.90;;;;;;;9.03;100.00;94140.00;6245829;23;20171;-60
2022/09/18 05:00:27;;;;;;;1999.90;999.90;;;;;;;9.10;100.00;94142.59;6246536;23;20248;-60
2022/09/18 05:02:53;;;;;;;1999.90;999.90;;;;;;;8.95;100.00;94143.31;6246028;23;20157;-60
2022/09/18 05:05:18;;;;;;;1999.90;999.90;;;;;;;8.91;100.00;94148.84;6245941;23;20226;-60
2022/09/18 05:07:43;;;;;;;1999.90;999.90;;;;;;;8.85;100.00;94158.69;6272187;22;20271;-60
2022/09/18 05:10:09;;;;;;;1999.90;999.90;;;;;;;9.00;100.00;94161.88;6271630;22;20505;-61
2022/09/18 05:12:35;;;;;;;1999.90;999.90;;;;;;;8.88;100.00;94166.03;6272067;22;20172;-60
2022/09/18 05:15:01;;;;;;;1999.90;999.90;;;;;;;8.99;100.00;94166.56;6245965;23;20169;-60
2022/09/18 05:17:26;;;;;;;1999.90;999.90;;;;;;;9.07;100.00;94173.38;6246262;23;20179;-60
2022/09/18 05:19:51;;;;;;;1999.90;999.90;;;;;;;9.06;100.00;94182.75;6271099;22;20611;-60
2022/09/18 05:22:17;;;;;;;1999.90;999.90;;;;;;;9.05;100.00;94189.38;6272012;22;20202;-59
2022/09/18 05:24:42;;;;;;;1999.90;999.90;;;;;;;9.11;100.00;94184.22;6271579;22;20161;-60
2022/09/18 05:27:07;;;;;;;1999.90;999.90;;;;;;;9.07;100.00;94187.00;6271466;22;20194;-60
2022/09/18 05:29:33;;;;;;;1999.90;999.90;;;;;;;9.08;100.00;94188.53;6245916;22;20172;-60
2022/09/18 05:31:59;;;;;;;1999.90;999.90;;;;;;;9.11;100.00;94195.84;6272011;22;20169;-59
2022/09/18 05:34:24;;;;;;;1999.90;999.90;;;;;;;9.14;100.00;94197.72;6272006;22;20472;-60
2022/09/18 05:36:49;;;;;;;1999.90;999.90;;;;;;;9.18;100.00;94197.66;6271772;22;20542;-60
2022/09/18 05:39:15;;;;;;;1999.90;999.90;;;;;;;9.23;100.00;94200.66;6271716;22;20173;-59
2022/09/18 05:41:40;;;;;;;1999.90;999.90;;;;;;;9.28;100.00;94186.53;6271967;22;20169;-59
2022/09/18 05:44:05;;;;;;;1999.90;999.90;;;;;;;9.31;100.00;94206.69;6271763;22;20173;-59
2022/09/18 05:46:31;;;;;;;1999.90;999.90;;;;;;;9.28;100.00;94200.13;6271434;22;20188;-61
2022/09/18 05:48:56;;;;;;;1999.90;999.90;;;;;;;9.32;100.00;94214.44;6271773;22;20161;-61
2022/09/18 05:51:21;;;;;;;1999.90;999.90;;;;;;;9.28;100.00;94213.75;6271714;22;20263;-60
2022/09/18 05:53:47;;;;;;;1999.90;999.90;;;;;;;9.30;100.00;94205.94;6271188;22;20161;-60
2022/09/18 05:56:16;;;;;;;1999.90;999.90;;;;;;;9.32;100.00;94210.94;6271470;22;20169;-61
2022/09/18 05:58:42;;;;;;;1999.90;999.90;;;;;;;9.35;100.00;94208.16;6246147;23;20165;-61
2022/09/18 06:01:07;;;;;;;1999.90;999.90;;;;;;;9.36;100.00;94220.56;6271688;22;20172;-60
2022/09/18 06:03:32;;;;;;;1999.90;999.90;;;;;;;9.38;100.00;94212.75;6246121;22;20240;-61
2022/09/18 06:05:58;;;;;;;1999.90;999.90;;;;;;;9.42;100.00;94218.88;6271459;22;20207;-60
2022/09/18 06:08:23;;;;;;;1999.90;999.90;;;;;;;9.45;100.00;94212.59;6271628;22;20181;-62
2022/09/18 06:10:49;;;;;;;1999.90;999.90;;;;;;;9.46;100.00;94214.13;6271110;22;20169;-60
2022/09/18 06:13:16;;;;;;;1999.90;999.90;;;;;;;9.42;100.00;94215.38;6245594;22;20180;-60
2022/09/18 06:15:44;;;;;;;1999.90;999.90;;;;;;;9.50;100.00;94214.03;6271254;22;20161;-60
2022/09/18 06:18:11;;;;;;;1999.90;999.90;;;;;;;9.55;100.00;94217.00;6245488;23;20165;-60
2022/09/18 06:20:37;;;;;;;1999.90;999.90;;;;;;;9.61;100.00;94220.78;6271204;22;20231;-60
2022/09/18 06:23:03;;;;;;;1999.90;999.90;;;;;;;9.65;100.00;94221.44;6271117;22;20200;-60
2022/09/18 06:25:29;;;;;;;1999.90;999.90;;;;;;;9.59;100.00;94217.69;6245497;23;20164;-60
2022/09/18 06:27:59;;;;;;;1999.90;999.90;;;;;;;9.65;100.00;94224.19;6245801;22;20740;-61
2022/09/18 06:30:29;;;;;;;1999.90;999.90;;;;;;;9.66;100.00;94222.22;6245782;22;20230;-61
2022/09/18 06:32:59;;;;;;;1999.90;999.90;;;;;;;9.67;100.00;94227.25;6245866;23;20184;-60
2022/09/18 06:35:25;;;;;;;1999.90;999.90;;;;;;;9.71;100.00;94230.66;6245822;23;20165;-60
2022/09/18 06:37:50;;;;;;;1999.90;999.90;;;;;;;9.74;100.00;94235.28;6271714;22;20215;-60
2022/09/18 06:40:15;;;;;;;1999.90;999.90;;;;;;;9.79;100.00;94231.25;6271500;22;20502;-59
2022/09/18 06:42:41;;;;;;;1999.90;999.90;;;;;;;9.76;100.00;94230.16;6271481;22;20165;-60
2022/09/18 06:45:06;;;;;;;1999.90;999.90;;;;;;;9.80;100.00;94236.28;6271488;22;20185;-59
2022/09/18 06:47:32;;;;;;;1999.90;999.90;;;;;;;9.81;100.00;94240.53;6245853;22;20515;-61
2022/09/18 06:49:57;;;;;;;1999.90;999.90;;;;;;;9.80;100.00;94241.72;6245527;23;20191;-60
2022/09/18 06:52:23;;;;;;;1999.90;999.90;;;;;;;9.85;100.00;94246.69;6271008;22;20160;-59
2022/09/18 06:54:48;;;;;;;1999.90;999.90;;;;;;;9.81;100.00;94245.97;6245291;23;20241;-59
2022/09/18 06:57:13;;;;;;;1999.90;999.90;;;;;;;9.76;100.00;94245.72;6271114;22;20243;-60
2022/09/18 06:59:39;;;;;;;1999.90;999.90;;;;;;;9.84;100.00;94250.59;6245745;22;20164;-60
2022/09/18 07:02:10;;;;;;;1999.90;999.90;;;;;;;9.72;100.00;94259.44;6271579;22;20165;-60
2022/09/18 07:04:36;;;;;;;1999.90;999.90;;;;;;;9.78;100.00;94260.47;6246178;23;20167;-60
2022/09/18 07:07:01;;;;;;;1999.90;999.90;;;;;;;9.72;100.00;94255.94;6271512;22;20181;-60
2022/09/18 07:09:26;;;;;;;1999.90;999.90;;;;;;;9.82;100.00;94261.16;6270834;22;20168;-59
2022/09/18 07:11:52;;;;;;;1999.90;999.90;;;;;;;9.85;100.00;94260.31;6271870;22;20164;-61
2022/09/18 07:14:17;;;;;;;1999.90;999.90;;;;;;;9.92;100.00;94262.84;6246120;23;20216;-60
2022/09/18 07:16:42;;;;;;;1999.90;999.90;;;;;;;9.91;100.00;94266.78;6270900;22;20531;-60
2022/09/18 07:19:08;;;;;;;1999.90;999.90;;;;;;;9.86;100.00;94269.25;6270641;22;20465;-60
2022/09/18 07:21:33;;;;;;;1999.90;999.90;;;;;;;9.84;100.00;94261.50;6271352;22;20168;-61
2022/09/18 07:23:59;;;;;;;1999.90;999.90;;;;;;;9.94;100.00;94265.94;6271063;22;20533;-59
2022/09/18 07:26:24;;;;;;;1999.90;999.90;;;;;;;9.98;100.00;94272.06;6270634;22;20157;-59
2022/09/18 07:28:51;;;;;;;1999.90;999.90;;;;;;;10.00;100.00;94275.16;6271508;22;20163;-60
2022/09/18 07:31:17;;;;;;;1999.90;999.90;;;;;;;10.00;100.00;94275.16;6270574;22;20165;-60
2022/09/18 07:33:42;;;;;;;1999.90;999.90;;;;;;;10.07;100.00;94280.47;6245048;23;20171;-60
2022/09/18 07:36:07;;;;;;;1999.90;999.90;;;;;;;10.10;100.00;94285.03;6270672;22;20167;-59
2022/09/18 07:38:33;;;;;;;1999.90;999.90;;;;;;;10.14;100.00;94280.25;6270752;22;20236;-59
2022/09/18 07:41:03;;;;;;;1999.90;999.90;;;;;;;10.13;100.00;94284.19;6270626;22;20222;-59
2022/09/18 07:43:29;;;;;;;1999.90;999.90;;;;;;;10.10;100.00;94282.31;6245784;23;20161;-60
2022/09/18 07:45:54;;;;;;;1999.90;999.90;;;;;;;9.96;100.00;94288.09;6245242;22;20229;-60
2022/09/18 07:48:19;;;;;;;1999.90;999.90;;;;;;;10.13;100.00;94285.38;6270444;22;20684;-60
2022/09/18 07:50:45;;;;;;;1999.90;999.90;;;;;;;10.26;100.00;94272.59;6270533;22;20257;-61
2022/09/18 07:53:11;;;;;;;1999.90;999.90;;;;;;;10.28;100.00;94270.19;6270546;22;20161;-60
2022/09/18 07:55:36;;;;;;;1999.90;999.90;;;;;;;10.36;100.00;94272.31;6245036;22;20535;-60
2022/09/18 07:58:04;;;;;;;1999.90;999.90;;;;;;;10.44;100.00;94281.84;6245797;23;20164;-59
2022/09/18 08:00:33;;;;;;;1999.90;999.90;;;;;;;10.44;100.00;94270.16;6245087;23;20233;-60
2022/09/18 08:03:07;;;;;;;1999.90;999.90;;;;;;;10.42;100.00;94278.81;6245661;23;20153;-60
2022/09/18 08:05:32;;;;;;;1999.90;999.90;;;;;;;10.34;100.00;94276.69;6246023;23;20173;-61
2022/09/18 08:08:03;;;;;;;1999.90;999.90;;;;;;;10.35;100.00;94283.66;6246057;22;20217;-60
2022/09/18 08:10:29;;;;;;;1999.90;999.90;;;;;;;10.46;100.00;94289.63;6246200;23;20170;-60
2022/09/18 08:12:54;;;;;;;1999.90;999.90;;;;;;;10.56;100.00;94283.13;6271694;22;20161;-62
2022/09/18 08:15:19;;;;;;;1999.90;999.90;;;;;;;10.60;100.00;94289.25;6272130;22;20167;-60
2022/09/18 08:17:45;;;;;;;1999.90;999.90;;;;;;;10.54;100.00;94282.78;6271590;22;20240;-60
2022/09/18 08:20:11;;;;;;;1999.90;999.90;;;;;;;10.62;100.00;94292.31;6246313;22;20172;-60
2022/09/18 08:22:38;;;;;;;1999.90;999.90;;;;;;;10.59;100.00;94287.72;6246053;23;20248;-60
2022/09/18 08:25:04;;;;;;;1999.90;999.90;;;;;;;10.55;100.00;94287.81;6246154;23;20256;-59
2022/09/18 08:27:29;;;;;;;1999.90;999.90;;;;;;;10.57;100.00;94290.09;6245766;23;20239;-61
2022/09/18 08:29:56;;;;;;;1999.90;999.90;;;;;;;10.57;100.00;94295.56;6271593;22;20165;-61
2022/09/18 08:32:22;;;;;;;1999.90;999.90;;;;;;;10.52;100.00;94298.84;6272283;22;20240;-61
2022/09/18 08:34:47;;;;;;;1999.90;999.90;;;;;;;10.54;100.00;94290.97;6245763;23;20154;-61
2022/09/18 08:37:12;;;;;;;1999.90;999.90;;;;;;;10.52;100.00;94299.56;6272028;22;20246;-61
2022/09/18 08:39:38;;;;;;;1999.90;999.90;;;;;;;10.67;100.00;94283.63;6272076;22;20632;-61
2022/09/18 08:42:19;;;;;;;1999.90;999.90;;;;;;;10.64;100.00;94289.94;6271358;22;20193;-62
2022/09/18 08:44:49;;;;;;;1999.90;999.90;;;;;;;10.80;100.00;94287.16;6246399;23;20164;-61
2022/09/18 08:47:25;;;;;;;1999.90;999.90;;;;;;;10.85;100.00;94289.38;6271749;22;20196;-60
2022/09/18 08:50:17;;;;;;;1999.90;999.90;;;;;;;10.92;100.00;94291.91;6246162;23;20230;-61
2022/09/18 08:52:47;;;;;;;1999.90;999.90;;;;;;;10.99;100.00;94288.94;6246562;23;20196;-61
2022/09/18 08:55:19;;;;;;;1999.90;999.90;;;;;;;10.97;100.00;94292.16;6246129;23;20256;-61
2022/09/18 08:57:45;;;;;;;1999.90;999.90;;;;;;;11.05;100.00;94309.09;6271426;22;20168;-61
2022/09/18 09:00:15;;;;;;;1999.90;999.90;;;;;;;11.05;100.00;94298.16;6246228;23;20169;-61
2022/09/18 09:02:49;;;;;;;1999.90;999.90;;;;;;;11.05;100.00;94298.16;6245616;23;20165;-61
2022/09/18 09:05:19;;;;;;;1999.90;999.90;;;;;;;11.04;100.00;94311.03;6245715;22;20181;-61
2022/09/18 09:07:45;;;;;;;1999.90;999.90;;;;;;;11.11;100.00;94302.66;6271305;22;20188;-61
2022/09/18 09:10:25;;;;;;;1999.90;999.90;;;;;;;11.20;100.00;94304.75;6271736;22;20359;-61
2022/09/18 09:13:06;;;;;;;1999.90;999.90;;;;;;;11.28;100.00;94306.09;6272083;22;20251;-60
2022/09/18 09:15:38;;;;;;;1999.90;999.90;;;;;;;11.25;100.00;94307.72;6271776;22;20524;-62
2022/09/18 09:18:17;;;;;;;1999.90;999.90;;;;;;;11.27;100.00;94313.53;6246026;23;20227;-62
2022/09/18 09:20:56;;;;;;;1999.90;999.90;;;;;;;11.38;100.00;94311.25;6246167;23;20218;-60
2022/09/18 09:23:33;;;;;;;1999.90;999.90;;;;;;;11.43;100.00;94313.44;6245908;22;20169;-61
2022/09/18 09:26:15;;;;;;;1999.90;999.90;;;;;;;11.39;100.00;94312.00;6271174;22;20304;-61
2022/09/18 09:28:54;;;;;;;1999.90;999.90;;;;;;;11.51;100.00;94303.84;6245573;23;20242;-61
2022/09/18 09:31:25;;;;;;;1999.90;999.90;;;;;;;11.58;100.00;94311.09;6246229;23;20200;-60
2022/09/18 09:33:53;;;;;;;1999.90;999.90;;;;;;;11.43;100.00;94318.13;6246110;23;20168;-60
2022/09/18 09:36:23;;;;;;;1999.90;999.90;;;;;;;11.42;100.00;94317.38;6271933;22;20480;-60
2022/09/18 09:39:17;;;;;;;1999.90;999.90;;;;;;;11.52;100.00;94310.06;6271455;22;20169;-60
2022/09/18 09:41:56;;;;;;;1999.90;999.90;;;;;;;11.45;100.00;94315.75;6245960;23;20161;-60
2022/09/18 09:44:40;;;;;;;1999.90;999.90;;;;;;;11.35;100.00;94311.34;6245419;23;20169;-60
2022/09/18 09:47:42;;;;;;;1999.90;999.90;;;;;;;11.40;100.00;94313.56;6245898;23;20594;-60
2022/09/18 09:50:07;;;;;;;1999.90;999.90;;;;;;;11.52;100.00;94310.84;6271440;22;20223;-60
2022/09/18 09:52:35;;;;;;;1999.90;999.90;;;;;;;11.59;100.00;94312.59;6271035;22;20157;-61
2022/09/18 09:55:13;;;;;;;1999.90;999.90;;;;;;;11.63;100.00;94316.03;6270888;22;20172;-60
2022/09/18 09:57:48;;;;;;;1999.90;999.90;;;;;;;11.75;100.00;94307.06;6271096;22;20587;-60
2022/09/18 10:00:18;;;;;;;1999.90;999.90;;;;;;;11.95;100.00;94304.88;6271457;22;20590;-60
2022/09/18 10:02:56;;;;;;;1999.90;999.90;;;;;;;11.94;100.00;94315.06;6245428;23;20256;-60
2022/09/18 10:05:37;;;;;;;1999.90;999.90;;;;;;;12.12;100.00;94319.97;6271142;22;20212;-59
2022/09/18 10:08:16;;;;;;;1999.90;999.90;;;;;;;12.18;100.00;94318.22;6245878;23;20209;-61
2022/09/18 10:11:00;;;;;;;1999.90;999.90;;;;;;;12.22;100.00;94308.69;6245565;23;20227;-61
2022/09/18 10:13:45;;;;;;;1999.90;999.90;;;;;;;12.25;100.00;94313.31;6266028;22;20153;-61
2022/09/18 10:16:28;;;;;;;1999.90;999.90;;;;;;;12.23;100.00;94315.69;6246126;23;20168;-61
2022/09/18 10:18:53;;;;;;;1999.90;999.90;;;;;;;12.25;100.00;94318.78;6245382;23;20191;-60
2022/09/18 10:21:23;;;;;;;1999.90;999.90;;;;;;;12.16;100.00;94326.88;6245532;23;20190;-60
2022/09/18 10:24:11;;;;;;;1999.90;999.90;;;;;;;11.95;100.00;94332.25;6270997;22;20192;-60
2022/09/18 10:26:43;;;;;;;1999.90;999.90;;;;;;;11.88;100.00;94329.72;6189389;23;20176;-61
2022/09/18 10:29:09;;;;;;;1999.90;999.90;;;;;;;11.90;100.00;94338.25;6245321;23;20252;-61
2022/09/18 10:31:52;;;;;;;1999.90;999.90;;;;;;;11.93;100.00;94329.19;6270896;22;20256;-61
2022/09/18 10:34:38;;;;;;;1999.90;999.90;;;;;;;11.91;100.00;94331.59;6245571;23;20168;-61
2022/09/18 10:37:05;;;;;;;1999.90;999.90;;;;;;;11.93;100.00;94334.66;6245715;23;20173;-61
2022/09/18 10:39:33;;;;;;;1999.90;999.90;;;;;;;11.91;100.00;94335.09;6246100;23;20233;-61
2022/09/18 10:42:06;;;;;;;1999.90;999.90;;;;;;;12.11;100.00;94334.88;6245180;22;20176;-61
2022/09/18 10:44:38;;;;;;;1999.90;999.90;;;;;;;12.22;100.00;94340.78;6245592;23;20153;-61
2022/09/18 10:47:18;;;;;;;1999.90;999.90;;;;;;;12.27;100.00;94337.47;6245383;22;20631;-61
2022/09/18 10:50:14;;;;;;;1999.90;999.90;;;;;;;12.32;100.00;94331.47;6245650;23;20591;-61
2022/09/18 10:52:42;;;;;;;1999.90;999.90;;;;;;;12.25;100.00;94334.44;6245678;23;20166;-61
2022/09/18 10:55:12;;;;;;;1999.90;999.90;;;;;;;12.29;100.00;94335.06;6245686;23;20204;-61
2022/09/18 10:57:37;;;;;;;1999.90;999.90;;;;;;;12.30;100.00;94331.13;6245399;23;20166;-61
2022/09/18 11:00:12;;;;;;;1999.90;999.90;;;;;;;12.43;100.00;94329.91;6271031;22;20173;-60
2022/09/18 11:02:40;;;;;;;1999.90;999.90;;;;;;;12.43;100.00;94320.94;6271050;22;20171;-61